createdAt,value
2023-05-16T00:00:00.847Z,104.6
2023-05-16T00:05:00.970Z,104.4
2023-05-16T00:10:00.836Z,103.1
2023-05-16T00:15:00.930Z,100.0
2023-05-16T00:20:00.828Z,94.8
2023-05-16T00:25:00.908Z,94.3
2023-05-16T00:30:00.836Z,91.6
2023-05-16T00:35:00.933Z,90.0
2023-05-16T00:40:00.810Z,89.8
2023-05-16T00:45:00.941Z,89.6
2023-05-16T00:55:01.177Z,93.0
2023-05-16T01:00:00.856Z,93.4
2023-05-16T01:05:01.126Z,93.0
2023-05-16T01:10:00.839Z,92.9
2023-05-16T01:15:00.930Z,92.1
2023-05-16T01:30:01.055Z,96.4
2023-05-16T01:35:01.046Z,98.8
2023-05-16T01:40:00.970Z,100.6
2023-05-16T01:45:01.065Z,101.3
2023-05-16T01:50:00.961Z,101.9
2023-05-16T01:55:01.121Z,103.5
2023-05-16T02:00:00.958Z,103.9
2023-05-16T02:05:01.035Z,102.9
2023-05-16T02:10:00.970Z,104.1
2023-05-16T02:15:01.057Z,105.2
2023-05-16T02:20:00.963Z,104.9
2023-05-16T02:25:01.031Z,104.4
2023-05-16T02:30:00.941Z,104.3
2023-05-16T02:35:06.086Z,103.0
2023-05-16T02:40:00.988Z,99.0
2023-05-16T02:45:01.050Z,95.9
2023-05-16T02:50:00.962Z,93.5
2023-05-16T02:55:16.633Z,94.3
2023-05-16T03:00:00.948Z,95.2
2023-05-16T03:05:01.028Z,98.2
2023-05-16T03:10:01.017Z,101.4
2023-05-16T03:15:01.070Z,104.4
2023-05-16T03:20:00.967Z,102.9
2023-05-16T03:25:01.099Z,101.6
2023-05-16T03:30:00.946Z,105.2
2023-05-16T03:35:01.118Z,100.8
2023-05-16T03:40:08.199Z,102.5
2023-05-16T03:45:01.161Z,103.3
2023-05-16T03:50:00.951Z,102.0
2023-05-16T03:55:01.045Z,96.5
2023-05-16T04:00:00.949Z,98.2
2023-05-16T04:05:01.078Z,97.0
2023-05-16T04:10:00.995Z,94.9
2023-05-16T04:15:01.100Z,95.5
2023-05-16T04:20:00.942Z,104.1
2023-05-16T04:25:01.081Z,103.6
2023-05-16T04:30:00.943Z,100.3
2023-05-16T04:35:01.118Z,103.8
2023-05-16T04:40:00.949Z,101.9
2023-05-16T04:45:01.079Z,93.7
2023-05-16T04:50:00.951Z,95.7
2023-05-16T04:55:01.121Z,96.7
2023-05-16T05:00:00.948Z,93.6
2023-05-16T05:05:01.076Z,94.6
2023-05-16T05:10:00.983Z,93.4
2023-05-16T05:15:01.141Z,91.2
2023-05-16T05:20:02.768Z,90.8
2023-05-16T05:25:01.117Z,90.4
2023-05-16T05:30:01.017Z,90.6
2023-05-16T05:35:01.033Z,90.2
2023-05-16T05:40:01.014Z,92.0
2023-05-16T05:45:01.018Z,92.2
2023-05-16T05:50:01.011Z,93.2
2023-05-16T05:55:01.096Z,92.7
2023-05-16T06:00:01.277Z,94.2
2023-05-16T06:05:01.139Z,93.6
2023-05-16T06:10:02.019Z,93.2
2023-05-16T06:15:01.044Z,90.2
2023-05-16T06:20:00.956Z,90.1
2023-05-16T06:25:01.026Z,88.2
2023-05-16T06:30:00.958Z,87.7
2023-05-16T06:35:01.117Z,86.2
2023-05-16T06:40:00.966Z,88.7
2023-05-16T06:45:01.090Z,88.4
2023-05-16T06:50:01.022Z,89.1
2023-05-16T06:55:01.296Z,87.9
2023-05-16T07:00:01.010Z,89.7
2023-05-16T07:05:01.332Z,89.3
2023-05-16T07:10:00.965Z,88.4
2023-05-16T07:15:01.118Z,87.6
2023-05-16T07:20:02.939Z,87.9
2023-05-16T07:25:01.247Z,86.2
2023-05-16T07:30:01.027Z,85.4
2023-05-16T07:35:01.063Z,85.6
2023-05-16T07:40:00.964Z,85.4
2023-05-16T07:45:01.022Z,84.7
2023-05-16T07:50:00.969Z,84.2
2023-05-16T07:55:01.151Z,84.5
2023-05-16T08:00:00.988Z,84.6
2023-05-16T08:05:01.024Z,84.5
2023-05-16T08:10:00.975Z,83.8
2023-05-16T08:15:01.164Z,82.9
2023-05-16T08:20:00.990Z,82.5
2023-05-16T08:25:01.080Z,82.6
2023-05-16T08:30:00.960Z,82.6
2023-05-16T08:35:01.076Z,87.0
2023-05-16T08:40:00.972Z,88.9
2023-05-16T08:45:01.080Z,94.5
2023-05-16T08:50:00.989Z,97.4
2023-05-16T08:55:09.809Z,94.9
2023-05-16T09:00:00.988Z,92.4
2023-05-16T09:05:01.095Z,92.3
2023-05-16T09:10:00.956Z,85.5
2023-05-16T09:15:01.043Z,81.2
2023-05-16T09:20:00.953Z,82.7
2023-05-16T09:25:01.022Z,80.5
2023-05-16T09:30:00.955Z,79.1
2023-05-16T09:35:01.112Z,79.4
2023-05-16T09:40:00.993Z,81.7
2023-05-16T09:45:02.088Z,81.9
2023-05-16T09:50:00.981Z,82.3
2023-05-16T09:55:01.111Z,82.0
2023-05-16T10:00:01.025Z,81.5
2023-05-16T10:05:01.176Z,79.3
2023-05-16T10:10:00.981Z,80.4
2023-05-16T10:15:01.132Z,80.5
2023-05-16T10:20:00.959Z,82.2
2023-05-16T10:25:01.138Z,86.0
2023-05-16T10:30:00.984Z,86.6
2023-05-16T10:35:01.198Z,86.0
2023-05-16T10:40:01.081Z,86.5
2023-05-16T10:45:05.689Z,90.0
2023-05-16T10:50:00.996Z,90.8
2023-05-16T10:55:01.084Z,92.4
2023-05-16T11:00:00.979Z,95.0
2023-05-16T11:05:01.136Z,96.2
2023-05-16T11:10:01.375Z,93.6
2023-05-16T11:15:01.121Z,91.5
2023-05-16T11:20:00.960Z,92.8
2023-05-16T11:25:01.057Z,92.6
2023-05-16T11:30:03.106Z,93.3
2023-05-16T11:35:01.271Z,91.5
2023-05-16T11:40:01.174Z,91.6
2023-05-16T11:45:01.152Z,91.3
2023-05-16T11:50:00.992Z,90.4
2023-05-16T11:55:01.091Z,89.4
2023-05-16T12:00:01.080Z,90.5
2023-05-16T12:05:01.153Z,91.2
2023-05-16T12:10:01.014Z,89.5
2023-05-16T12:15:01.258Z,90.0
2023-05-16T12:20:01.012Z,93.2
2023-05-16T12:25:01.182Z,91.2
2023-05-16T12:40:01.523Z,77.0
2023-05-16T12:45:01.467Z,79.0
2023-05-16T12:50:01.279Z,79.9
2023-05-16T12:55:01.451Z,79.0
2023-05-16T13:00:01.398Z,79.1
2023-05-16T13:05:01.377Z,81.6
2023-05-16T13:10:01.269Z,82.3
2023-05-16T13:15:01.379Z,83.4
2023-05-16T13:20:01.413Z,85.4
2023-05-16T13:25:01.397Z,86.4
2023-05-16T13:30:01.303Z,86.4
2023-05-16T13:35:01.424Z,86.8
2023-05-16T13:40:01.404Z,86.9
2023-05-16T13:45:01.352Z,87.9
2023-05-16T13:55:01.349Z,86.8
2023-05-16T14:05:01.338Z,84.0
2023-05-16T14:10:01.278Z,82.0
2023-05-16T14:15:01.399Z,81.4
2023-05-16T14:20:01.507Z,81.1
2023-05-16T14:25:01.336Z,81.2
2023-05-16T14:30:01.297Z,83.6
2023-05-16T14:35:01.313Z,84.6
2023-05-16T14:40:01.403Z,86.8
2023-05-16T14:45:01.303Z,89.1
2023-05-16T14:50:01.300Z,90.2
2023-05-16T15:00:01.557Z,97.8
2023-05-16T15:05:01.374Z,96.8
2023-05-16T15:10:01.221Z,95.4
2023-05-16T15:15:01.356Z,95.0
2023-05-16T15:20:01.348Z,94.6
2023-05-16T15:25:01.277Z,89.9
2023-05-16T15:30:01.224Z,89.0
2023-05-16T15:35:01.267Z,93.6
2023-05-16T15:40:01.444Z,99.9
2023-05-16T15:45:01.354Z,104.2
2023-05-16T15:50:01.279Z,106.7
2023-05-16T15:55:01.362Z,107.5
2023-05-16T16:00:01.334Z,102.1
2023-05-16T16:05:01.269Z,110.3
2023-05-16T16:10:01.231Z,104.9
2023-05-16T16:15:01.355Z,99.2
2023-05-16T16:20:01.438Z,98.2
2023-05-16T16:25:01.239Z,100.0
2023-05-16T16:30:01.208Z,84.8
2023-05-16T16:40:01.355Z,84.1
2023-05-16T16:45:01.312Z,85.3
2023-05-16T16:50:01.166Z,84.6
2023-05-16T16:55:01.233Z,84.7
2023-05-16T17:00:01.382Z,85.0
2023-05-16T17:05:01.245Z,87.4
2023-05-16T17:10:01.317Z,87.5
2023-05-16T17:15:01.291Z,86.8
2023-05-16T17:25:01.292Z,87.2
2023-05-16T17:35:01.209Z,86.0
2023-05-16T17:40:01.160Z,87.8
2023-05-16T17:45:01.336Z,87.0
2023-05-16T17:50:01.401Z,86.4
2023-05-16T18:00:01.209Z,88.7
2023-05-16T18:05:01.385Z,86.8
2023-05-16T18:10:01.176Z,87.5
2023-05-16T18:15:01.242Z,88.0
2023-05-16T18:20:01.344Z,88.2
2023-05-16T18:25:01.282Z,91.7
2023-05-16T18:30:01.137Z,90.2
2023-05-16T18:40:01.216Z,91.2
2023-05-16T18:45:02.425Z,91.8
2023-05-16T18:50:01.106Z,91.5
2023-05-16T18:55:01.174Z,87.5
2023-05-16T19:00:01.109Z,87.9
2023-05-16T19:05:01.646Z,87.7
2023-05-16T19:15:01.275Z,88.2
2023-05-16T19:20:01.161Z,87.6
2023-05-16T19:25:01.336Z,86.6
2023-05-16T19:30:01.279Z,87.1
2023-05-16T19:35:01.405Z,87.8
2023-05-16T19:40:01.172Z,87.9
2023-05-16T19:45:01.371Z,90.8
2023-05-16T19:50:01.190Z,93.3
2023-05-16T19:55:01.232Z,94.4
2023-05-16T20:00:01.138Z,94.2
2023-05-16T20:10:01.349Z,94.9
2023-05-16T20:15:01.340Z,94.1
2023-05-16T20:20:01.229Z,96.2
2023-05-16T20:25:01.229Z,95.8
2023-05-16T20:30:01.385Z,92.9
2023-05-16T20:40:01.179Z,91.2
2023-05-16T20:45:05.982Z,90.1
2023-05-16T20:50:01.233Z,86.3
2023-05-16T20:55:01.328Z,84.4
2023-05-16T21:00:01.145Z,86.6
2023-05-16T21:05:10.130Z,89.5
2023-05-16T21:10:01.144Z,89.7
2023-05-16T21:15:01.178Z,90.4
2023-05-16T21:20:01.185Z,90.7
2023-05-16T21:25:01.374Z,90.5
2023-05-16T21:30:01.128Z,90.2
2023-05-16T21:35:01.341Z,89.4
2023-05-16T21:40:01.123Z,88.4
2023-05-16T21:45:01.487Z,89.4
2023-05-16T21:50:01.140Z,90.0
2023-05-16T21:55:01.223Z,87.6
2023-05-16T22:00:01.141Z,87.8
2023-05-16T22:05:01.438Z,89.4
2023-05-16T22:15:01.283Z,89.2
2023-05-16T22:20:01.140Z,89.6
2023-05-16T22:25:01.336Z,91.3
2023-05-16T22:30:01.175Z,93.3
2023-05-16T22:35:01.232Z,93.4
2023-05-16T22:40:01.152Z,93.6
2023-05-16T22:45:01.382Z,95.3
2023-05-16T22:50:01.115Z,94.9
2023-05-16T22:55:01.204Z,94.7
2023-05-16T23:00:01.140Z,105.2
2023-05-16T23:05:01.481Z,106.1
2023-05-16T23:10:01.136Z,104.1
2023-05-16T23:15:01.726Z,102.4
2023-05-16T23:20:01.203Z,102.7
2023-05-16T23:25:01.380Z,93.4
2023-05-16T23:30:01.158Z,93.2
2023-05-16T23:35:01.219Z,94.4
2023-05-16T23:40:01.159Z,96.8
2023-05-16T23:50:01.353Z,101.2
2023-05-16T23:55:01.272Z,106.1
